createdAt,value
2023-02-07T00:00:00.754Z,1037.28
2023-02-07T00:01:00.752Z,1037.31
2023-02-07T00:02:00.767Z,1037.27
2023-02-07T00:03:00.731Z,1037.24
2023-02-07T00:04:00.743Z,1037.22
2023-02-07T00:05:00.693Z,1037.16
2023-02-07T00:06:00.689Z,1037.16
2023-02-07T00:07:00.688Z,1037.22
2023-02-07T00:08:00.671Z,1037.27
2023-02-07T00:09:00.661Z,1037.29
2023-02-07T00:10:00.628Z,1037.35
2023-02-07T00:11:00.665Z,1037.31
2023-02-07T00:12:00.656Z,1037.29
2023-02-07T00:13:00.608Z,1037.26
2023-02-07T00:14:00.616Z,1037.25
2023-02-07T00:15:00.569Z,1037.26
2023-02-07T00:16:00.561Z,1037.24
2023-02-07T00:17:00.553Z,1037.26
2023-02-07T00:18:00.519Z,1037.26
2023-02-07T00:19:00.632Z,1037.30
2023-02-07T00:20:00.513Z,1037.33
2023-02-07T00:21:00.513Z,1037.28
2023-02-07T00:22:00.500Z,1037.26
2023-02-07T00:23:00.463Z,1037.28
2023-02-07T00:24:00.456Z,1037.26
2023-02-07T00:25:00.465Z,1037.29
2023-02-07T00:26:00.442Z,1037.25
2023-02-07T00:27:00.438Z,1037.23
2023-02-07T00:28:00.484Z,1037.32
2023-02-07T00:29:00.401Z,1037.29
2023-02-07T00:30:00.360Z,1037.34
2023-02-07T00:31:00.481Z,1037.34
2023-02-07T00:32:00.348Z,1037.39
2023-02-07T00:33:00.319Z,1037.35
2023-02-07T00:34:00.311Z,1037.29
2023-02-07T00:35:00.307Z,1037.33
2023-02-07T00:36:00.288Z,1037.32
2023-02-07T00:37:00.306Z,1037.38
2023-02-07T00:38:00.252Z,1037.35
2023-02-07T00:39:00.247Z,1037.32
2023-02-07T00:40:00.267Z,1037.37
2023-02-07T00:41:00.223Z,1037.38
2023-02-07T00:42:00.242Z,1037.33
2023-02-07T00:43:00.213Z,1037.36
2023-02-07T00:44:00.224Z,1037.37
2023-02-07T00:45:00.170Z,1037.30
2023-02-07T00:46:00.204Z,1037.35
2023-02-07T00:47:00.165Z,1037.32
2023-02-07T00:48:00.127Z,1037.30
2023-02-07T00:49:00.125Z,1037.35
2023-02-07T00:50:00.145Z,1037.32
2023-02-07T00:51:00.097Z,1037.28
2023-02-07T00:52:00.127Z,1037.20
2023-02-07T00:53:00.077Z,1037.22
2023-02-07T00:54:00.059Z,1037.25
2023-02-07T00:55:00.048Z,1037.25
2023-02-07T00:56:00.043Z,1037.30
2023-02-07T00:57:00.031Z,1037.28
2023-02-07T00:58:00.034Z,1037.25
2023-02-07T00:59:00.025Z,1037.32
2023-02-07T01:00:00.005Z,1037.30
2023-02-07T01:01:00.014Z,1037.33
2023-02-07T01:01:59.972Z,1037.33
2023-02-07T01:02:59.941Z,1037.35
2023-02-07T01:03:59.918Z,1037.32
2023-02-07T01:04:59.984Z,1037.32
2023-02-07T01:05:59.911Z,1037.30
2023-02-07T01:06:59.905Z,1037.33
2023-02-07T01:07:59.883Z,1037.34
2023-02-07T01:08:59.883Z,1037.31
2023-02-07T01:09:59.862Z,1037.33
2023-02-07T01:10:59.833Z,1037.29
2023-02-07T01:11:59.847Z,1037.26
2023-02-07T01:12:59.825Z,1037.27
2023-02-07T01:13:59.823Z,1037.29
2023-02-07T01:14:59.793Z,1037.32
2023-02-07T01:15:59.818Z,1037.33
2023-02-07T01:16:59.797Z,1037.31
2023-02-07T01:17:59.750Z,1037.36
2023-02-07T01:18:59.732Z,1037.41
2023-02-07T01:19:59.726Z,1037.43
2023-02-07T01:20:59.708Z,1037.45
2023-02-07T01:21:59.703Z,1037.46
2023-02-07T01:22:59.686Z,1037.47
2023-02-07T01:23:59.678Z,1037.49
2023-02-07T01:24:59.656Z,1037.49
2023-02-07T01:25:59.636Z,1037.45
2023-02-07T01:26:59.660Z,1037.43
2023-02-07T01:27:59.654Z,1037.39
2023-02-07T01:28:59.595Z,1037.46
2023-02-07T01:29:59.581Z,1037.43
2023-02-07T01:30:59.703Z,1037.44
2023-02-07T01:31:59.573Z,1037.42
2023-02-07T01:32:59.556Z,1037.45
2023-02-07T01:33:59.566Z,1037.45
2023-02-07T01:34:59.521Z,1037.46
2023-02-07T01:37:10.968Z,1037.43
2023-02-07T01:38:11.027Z,1037.41
2023-02-07T01:39:09.329Z,1037.47
2023-02-07T01:40:09.274Z,1037.48
2023-02-07T01:41:09.269Z,1037.42
2023-02-07T01:42:09.246Z,1037.32
2023-02-07T01:43:09.263Z,1037.29
2023-02-07T01:44:09.236Z,1037.33
2023-02-07T01:45:09.206Z,1037.32
2023-02-07T01:46:09.281Z,1037.39
2023-02-07T01:47:09.194Z,1037.28
2023-02-07T01:48:09.185Z,1037.29
2023-02-07T01:49:09.162Z,1037.35
2023-02-07T01:50:09.134Z,1037.35
2023-02-07T01:51:09.136Z,1037.31
2023-02-07T01:52:09.114Z,1037.29
2023-02-07T01:53:09.126Z,1037.30
2023-02-07T01:54:09.096Z,1037.29
2023-02-07T01:55:09.373Z,1037.27
2023-02-07T01:56:09.082Z,1037.29
2023-02-07T01:57:09.056Z,1037.30
2023-02-07T01:58:09.053Z,1037.25
2023-02-07T01:59:09.035Z,1037.27
2023-02-07T02:00:09.017Z,1037.27
2023-02-07T02:01:09.062Z,1037.34
2023-02-07T02:02:08.981Z,1037.30
2023-02-07T02:03:09.023Z,1037.33
2023-02-07T02:04:08.973Z,1037.36
2023-02-07T02:05:08.953Z,1037.28
2023-02-07T02:06:08.942Z,1037.29
2023-02-07T02:07:08.923Z,1037.32
2023-02-07T02:08:08.934Z,1037.29
2023-02-07T02:09:08.916Z,1037.32
2023-02-07T02:10:08.883Z,1037.34
2023-02-07T02:11:08.875Z,1037.34
2023-02-07T02:12:08.865Z,1037.32
2023-02-07T02:13:08.863Z,1037.36
2023-02-07T02:14:08.844Z,1037.37
2023-02-07T02:15:08.819Z,1037.41
2023-02-07T02:16:08.837Z,1037.41
2023-02-07T02:17:08.802Z,1037.33
2023-02-07T02:18:08.813Z,1037.33
2023-02-07T02:19:08.771Z,1037.31
2023-02-07T02:20:08.771Z,1037.29
2023-02-07T02:21:08.747Z,1037.25
2023-02-07T02:22:08.734Z,1037.29
2023-02-07T02:23:08.742Z,1037.28
2023-02-07T02:24:08.704Z,1037.29
2023-02-07T02:25:08.694Z,1037.27
2023-02-07T02:26:08.686Z,1037.29
2023-02-07T02:27:08.664Z,1037.31
2023-02-07T02:28:08.683Z,1037.31
2023-02-07T02:29:08.635Z,1037.31
2023-02-07T02:30:08.648Z,1037.31
2023-02-07T02:31:08.680Z,1037.23
2023-02-07T02:32:08.613Z,1037.25
2023-02-07T02:33:08.592Z,1037.29
2023-02-07T02:34:08.574Z,1037.31
2023-02-07T02:35:08.570Z,1037.36
2023-02-07T02:36:08.553Z,1037.36
2023-02-07T02:37:08.542Z,1037.37
2023-02-07T02:38:08.540Z,1037.43
2023-02-07T02:39:08.514Z,1037.46
2023-02-07T02:40:08.491Z,1037.45
2023-02-07T02:41:08.484Z,1037.43
2023-02-07T02:42:08.471Z,1037.41
2023-02-07T02:43:08.473Z,1037.44
2023-02-07T02:44:08.434Z,1037.43
2023-02-07T02:45:08.434Z,1037.38
2023-02-07T02:46:08.492Z,1037.37
2023-02-07T02:47:08.405Z,1037.37
2023-02-07T02:48:08.404Z,1037.41
2023-02-07T02:49:08.385Z,1037.38
2023-02-07T02:50:08.377Z,1037.37
2023-02-07T02:51:08.356Z,1037.34
2023-02-07T02:52:08.343Z,1037.38
2023-02-07T02:53:08.326Z,1037.41
2023-02-07T02:54:08.405Z,1037.36
2023-02-07T02:55:08.300Z,1037.37
2023-02-07T02:56:08.285Z,1037.36
2023-02-07T02:57:08.289Z,1037.30
2023-02-07T02:58:08.272Z,1037.34
2023-02-07T02:59:08.275Z,1037.29
2023-02-07T03:00:08.272Z,1037.34
2023-02-07T03:01:08.229Z,1037.36
2023-02-07T03:02:08.206Z,1037.38
2023-02-07T03:03:08.208Z,1037.42
2023-02-07T03:04:08.197Z,1037.39
2023-02-07T03:05:08.196Z,1037.31
2023-02-07T03:06:08.168Z,1037.28
2023-02-07T03:07:08.160Z,1037.32
2023-02-07T03:08:08.157Z,1037.32
2023-02-07T03:09:08.139Z,1037.28
2023-02-07T03:10:08.122Z,1037.26
2023-02-07T03:11:08.097Z,1037.23
2023-02-07T03:12:08.100Z,1037.19
2023-02-07T03:13:08.080Z,1037.21
2023-02-07T03:14:08.066Z,1037.19
2023-02-07T03:15:08.047Z,1037.20
2023-02-07T03:16:08.099Z,1037.17
2023-02-07T03:17:08.018Z,1037.13
2023-02-07T03:18:08.007Z,1037.14
2023-02-07T03:19:08.017Z,1037.13
2023-02-07T03:20:07.988Z,1037.10
2023-02-07T03:21:07.970Z,1037.07
2023-02-07T03:22:07.947Z,1037.08
2023-02-07T03:23:07.950Z,1037.08
2023-02-07T03:24:07.956Z,1037.09
2023-02-07T03:25:07.924Z,1037.09
2023-02-07T03:26:07.894Z,1037.11
2023-02-07T03:27:07.891Z,1037.09
2023-02-07T03:28:07.880Z,1037.11
2023-02-07T03:29:07.875Z,1037.05
2023-02-07T03:30:07.862Z,1037.11
2023-02-07T03:31:07.870Z,1037.09
2023-02-07T03:32:07.822Z,1037.07
2023-02-07T03:33:07.814Z,1037.07
2023-02-07T03:34:07.814Z,1037.12
2023-02-07T03:35:07.793Z,1037.07
2023-02-07T03:36:07.775Z,1037.10
2023-02-07T03:37:07.762Z,1037.10
2023-02-07T03:38:07.739Z,1037.17
2023-02-07T03:39:07.742Z,1037.10
2023-02-07T03:40:07.714Z,1037.16
2023-02-07T03:41:07.701Z,1037.18
2023-02-07T03:42:07.691Z,1037.18
2023-02-07T03:43:07.671Z,1037.19
2023-02-07T03:44:07.671Z,1037.24
2023-02-07T03:45:07.656Z,1037.19
2023-02-07T03:46:07.638Z,1037.18
2023-02-07T03:47:07.631Z,1037.17
2023-02-07T03:48:07.644Z,1037.17
2023-02-07T03:49:07.624Z,1037.18
2023-02-07T03:50:07.585Z,1037.17
2023-02-07T03:51:07.572Z,1037.20
2023-02-07T03:52:07.556Z,1037.15
2023-02-07T03:53:07.549Z,1037.22
2023-02-07T03:54:07.557Z,1037.28
2023-02-07T03:55:07.555Z,1037.25
2023-02-07T03:56:07.532Z,1037.31
2023-02-07T03:57:07.512Z,1037.36
2023-02-07T03:58:07.479Z,1037.32
2023-02-07T03:59:07.497Z,1037.30
2023-02-07T04:00:07.467Z,1037.28
2023-02-07T04:01:07.478Z,1037.30
2023-02-07T04:02:07.501Z,1037.31
2023-02-07T04:03:07.446Z,1037.27
2023-02-07T04:04:07.425Z,1037.22
2023-02-07T04:05:07.406Z,1037.22
2023-02-07T04:06:07.400Z,1037.22
2023-02-07T04:07:07.374Z,1037.20
2023-02-07T04:08:07.354Z,1037.18
2023-02-07T04:09:07.372Z,1037.16
2023-02-07T04:10:07.366Z,1037.19
2023-02-07T04:11:07.327Z,1037.12
2023-02-07T04:12:07.329Z,1037.09
2023-02-07T04:13:07.306Z,1037.20
2023-02-07T04:14:07.289Z,1037.23
2023-02-07T04:15:07.286Z,1037.21
2023-02-07T04:16:07.301Z,1037.22
2023-02-07T04:17:07.244Z,1037.23
2023-02-07T04:18:07.267Z,1037.20
2023-02-07T04:19:07.220Z,1037.15
2023-02-07T04:20:07.221Z,1037.11
2023-02-07T04:21:07.193Z,1037.12
2023-02-07T04:22:07.184Z,1037.10
2023-02-07T04:23:07.164Z,1037.12
2023-02-07T04:24:07.147Z,1037.14
2023-02-07T04:25:07.163Z,1037.09
2023-02-07T04:26:07.145Z,1037.09
2023-02-07T04:27:07.112Z,1037.09
2023-02-07T04:28:07.130Z,1037.15
2023-02-07T04:29:07.093Z,1037.07
2023-02-07T04:30:07.095Z,1037.04
2023-02-07T04:31:07.074Z,1037.03
2023-02-07T04:32:07.120Z,1037.07
2023-02-07T04:33:07.044Z,1037.09
2023-02-07T04:34:07.031Z,1037.07
2023-02-07T04:35:07.031Z,1037.06
2023-02-07T04:36:07.005Z,1037.06
2023-02-07T04:37:06.992Z,1037.05
2023-02-07T04:38:07.004Z,1037.08
2023-02-07T04:39:06.985Z,1037.04
2023-02-07T04:40:06.963Z,1036.99
2023-02-07T04:41:06.975Z,1037.00
2023-02-07T04:42:06.921Z,1036.93
2023-02-07T04:43:06.918Z,1036.92
2023-02-07T04:44:06.889Z,1036.91
2023-02-07T04:45:06.891Z,1036.94
2023-02-07T04:46:06.928Z,1036.90
2023-02-07T04:47:06.873Z,1036.97
2023-02-07T04:48:06.841Z,1036.91
2023-02-07T04:49:06.827Z,1036.94
2023-02-07T04:50:06.834Z,1036.94
2023-02-07T04:51:06.821Z,1036.91
2023-02-07T04:52:06.788Z,1036.88
2023-02-07T04:53:06.786Z,1036.85
2023-02-07T04:54:06.769Z,1036.89
2023-02-07T04:55:06.758Z,1036.89
2023-02-07T04:56:06.736Z,1036.92
2023-02-07T04:57:06.761Z,1036.89
2023-02-07T04:58:06.720Z,1036.90
2023-02-07T04:59:06.700Z,1036.88
2023-02-07T05:00:06.699Z,1036.88
2023-02-07T05:01:06.692Z,1036.84
2023-02-07T05:02:06.668Z,1036.90
2023-02-07T05:03:06.672Z,1036.86
2023-02-07T05:04:06.637Z,1036.86
2023-02-07T05:05:06.632Z,1036.86
2023-02-07T05:06:06.623Z,1036.91
2023-02-07T05:07:06.612Z,1036.87
2023-02-07T05:08:06.590Z,1036.93
2023-02-07T05:09:06.564Z,1036.87
2023-02-07T05:10:06.582Z,1036.84
2023-02-07T05:11:06.542Z,1036.82
2023-02-07T05:12:06.542Z,1036.77
2023-02-07T05:13:06.527Z,1036.76
2023-02-07T05:14:06.511Z,1036.79
2023-02-07T05:15:06.505Z,1036.77
2023-02-07T05:16:06.506Z,1036.83
2023-02-07T05:17:06.475Z,1036.86
2023-02-07T05:18:06.474Z,1036.84
2023-02-07T05:19:06.457Z,1036.86
2023-02-07T05:20:06.443Z,1036.83
2023-02-07T05:21:06.436Z,1036.85
2023-02-07T05:22:06.418Z,1036.81
2023-02-07T05:23:06.392Z,1036.76
2023-02-07T05:24:06.398Z,1036.78
2023-02-07T05:25:06.381Z,1036.79
2023-02-07T05:26:06.373Z,1036.73
2023-02-07T05:27:06.346Z,1036.73
2023-02-07T05:28:06.373Z,1036.75
2023-02-07T05:29:06.333Z,1036.71
2023-02-07T05:30:06.353Z,1036.70
2023-02-07T05:31:06.554Z,1036.73
2023-02-07T05:32:07.003Z,1036.71
2023-02-07T05:33:06.270Z,1036.69
2023-02-07T05:34:06.257Z,1036.72
2023-02-07T05:35:06.235Z,1036.74
2023-02-07T05:36:06.235Z,1036.72
2023-02-07T05:37:06.214Z,1036.75
2023-02-07T05:38:06.216Z,1036.75
2023-02-07T05:39:06.194Z,1036.73
2023-02-07T05:40:06.173Z,1036.77
2023-02-07T05:41:06.173Z,1036.79
2023-02-07T05:42:06.152Z,1036.76
2023-02-07T05:43:06.137Z,1036.84
2023-02-07T05:44:06.129Z,1036.84
2023-02-07T05:45:06.105Z,1036.88
2023-02-07T05:46:06.137Z,1036.87
2023-02-07T05:47:06.086Z,1036.94
2023-02-07T05:48:06.073Z,1036.90
2023-02-07T05:49:06.065Z,1036.84
2023-02-07T05:50:06.040Z,1036.91
2023-02-07T05:51:06.047Z,1036.90
2023-02-07T05:52:06.029Z,1036.90
2023-02-07T05:53:06.001Z,1036.96
2023-02-07T05:54:06.027Z,1036.94
2023-02-07T05:55:05.973Z,1036.97
2023-02-07T05:56:05.988Z,1036.98
2023-02-07T05:57:05.954Z,1036.99
2023-02-07T05:58:05.954Z,1037.00
2023-02-07T05:59:05.918Z,1037.04
2023-02-07T06:00:05.923Z,1037.03
2023-02-07T06:01:05.922Z,1037.07
2023-02-07T06:02:05.888Z,1037.11
2023-02-07T06:03:05.866Z,1037.11
2023-02-07T06:04:05.866Z,1037.13
2023-02-07T06:05:05.851Z,1037.18
2023-02-07T06:06:05.849Z,1037.14
2023-02-07T06:07:05.828Z,1037.23
2023-02-07T06:08:05.815Z,1037.22
2023-02-07T06:09:05.797Z,1037.20
2023-02-07T06:10:05.786Z,1037.22
2023-02-07T06:11:05.766Z,1037.24
2023-02-07T06:12:05.767Z,1037.27
2023-02-07T06:13:05.746Z,1037.22
2023-02-07T06:14:05.756Z,1037.19
2023-02-07T06:15:05.708Z,1037.17
2023-02-07T06:16:05.788Z,1037.20
2023-02-07T06:17:05.714Z,1037.22
2023-02-07T06:18:05.697Z,1037.19
2023-02-07T06:19:05.706Z,1037.21
2023-02-07T06:20:05.660Z,1037.23
2023-02-07T06:21:05.647Z,1037.30
2023-02-07T06:22:05.638Z,1037.28
2023-02-07T06:23:07.979Z,1037.27
2023-02-07T06:24:05.755Z,1037.24
2023-02-07T06:25:05.573Z,1037.24
2023-02-07T06:26:05.582Z,1037.26
2023-02-07T06:27:05.596Z,1037.29
2023-02-07T06:28:05.586Z,1037.25
2023-02-07T06:29:05.535Z,1037.24
2023-02-07T06:30:05.542Z,1037.27
2023-02-07T06:31:05.616Z,1037.31
2023-02-07T06:32:05.518Z,1037.29
2023-02-07T06:33:05.497Z,1037.31
2023-02-07T06:34:05.469Z,1037.35
2023-02-07T06:35:05.465Z,1037.34
2023-02-07T06:36:05.475Z,1037.38
2023-02-07T06:37:05.460Z,1037.37
2023-02-07T06:38:05.428Z,1037.43
2023-02-07T06:39:05.410Z,1037.45
2023-02-07T06:40:05.408Z,1037.45
2023-02-07T06:41:05.385Z,1037.46
2023-02-07T06:42:05.393Z,1037.52
2023-02-07T06:43:05.987Z,1037.50
2023-02-07T06:44:05.348Z,1037.52
2023-02-07T06:45:05.344Z,1037.57
2023-02-07T06:46:05.376Z,1037.55
2023-02-07T06:47:05.318Z,1037.55
2023-02-07T06:48:05.311Z,1037.58
2023-02-07T06:49:05.296Z,1037.60
2023-02-07T06:50:05.289Z,1037.60
2023-02-07T06:51:05.275Z,1037.63
2023-02-07T06:52:05.272Z,1037.60
2023-02-07T06:53:05.253Z,1037.62
2023-02-07T06:54:05.252Z,1037.61
2023-02-07T06:55:05.238Z,1037.63
2023-02-07T06:56:05.213Z,1037.64
2023-02-07T06:57:05.213Z,1037.67
2023-02-07T06:58:05.188Z,1037.64
2023-02-07T06:59:05.199Z,1037.70
2023-02-07T07:00:05.173Z,1037.75
2023-02-07T07:01:05.155Z,1037.70
2023-02-07T07:02:05.239Z,1037.71
2023-02-07T07:03:05.186Z,1037.74
2023-02-07T07:04:05.111Z,1037.69
2023-02-07T07:05:05.081Z,1037.69
2023-02-07T07:06:05.083Z,1037.68
2023-02-07T07:07:05.090Z,1037.69
2023-02-07T07:08:05.055Z,1037.73
2023-02-07T07:09:05.045Z,1037.76
2023-02-07T07:10:05.070Z,1037.76
2023-02-07T07:11:05.026Z,1037.74
2023-02-07T07:12:05.021Z,1037.79
2023-02-07T07:13:05.021Z,1037.77
2023-02-07T07:14:05.009Z,1037.81
2023-02-07T07:15:04.965Z,1037.81
2023-02-07T07:16:05.042Z,1037.84
2023-02-07T07:17:04.940Z,1037.93
2023-02-07T07:18:04.944Z,1037.95
2023-02-07T07:19:04.938Z,1037.99
2023-02-07T07:20:04.914Z,1037.91
2023-02-07T07:21:04.894Z,1037.92
2023-02-07T07:22:04.893Z,1037.93
2023-02-07T07:23:04.919Z,1037.91
2023-02-07T07:24:04.857Z,1037.89
2023-02-07T07:25:04.850Z,1037.96
2023-02-07T07:26:04.848Z,1037.94
2023-02-07T07:27:04.814Z,1037.89
2023-02-07T07:28:04.857Z,1037.96
2023-02-07T07:29:04.784Z,1037.94
2023-02-07T07:30:04.788Z,1037.93
2023-02-07T07:31:04.909Z,1037.92
2023-02-07T07:32:04.752Z,1037.98
2023-02-07T07:33:04.747Z,1038.07
2023-02-07T07:34:04.725Z,1038.07
2023-02-07T07:35:04.746Z,1038.06
2023-02-07T07:36:11.715Z,1038.07
2023-02-07T07:37:04.673Z,1038.13
2023-02-07T07:38:04.685Z,1038.08
2023-02-07T07:39:04.661Z,1038.03
2023-02-07T07:40:04.646Z,1038.06
2023-02-07T07:41:04.626Z,1038.04
2023-02-07T07:42:04.619Z,1038.05
2023-02-07T07:43:04.608Z,1038.06
2023-02-07T07:44:04.583Z,1038.05
2023-02-07T07:45:04.571Z,1038.08
2023-02-07T07:46:04.592Z,1038.07
2023-02-07T07:47:04.556Z,1038.10
2023-02-07T07:48:04.678Z,1038.10
2023-02-07T07:49:04.525Z,1038.13
2023-02-07T07:50:04.521Z,1038.10
2023-02-07T07:51:04.503Z,1038.11
2023-02-07T07:52:04.485Z,1038.07
2023-02-07T07:53:04.489Z,1038.12
2023-02-07T07:54:04.461Z,1038.16
2023-02-07T07:55:04.459Z,1038.20
2023-02-07T07:56:04.432Z,1038.19
2023-02-07T07:57:04.421Z,1038.21
2023-02-07T07:58:04.424Z,1038.21
2023-02-07T07:59:08.762Z,1038.26
2023-02-07T08:00:05.399Z,1038.26
2023-02-07T08:01:04.429Z,1038.23
2023-02-07T08:02:04.380Z,1038.28
2023-02-07T08:03:04.394Z,1038.29
2023-02-07T08:04:04.373Z,1038.23
2023-02-07T08:05:04.308Z,1038.29
2023-02-07T08:06:04.301Z,1038.20
2023-02-07T08:07:04.313Z,1038.21
2023-02-07T08:08:04.325Z,1038.16
2023-02-07T08:09:04.385Z,1038.12
2023-02-07T08:10:04.261Z,1038.19
2023-02-07T08:11:04.252Z,1038.14
2023-02-07T08:12:04.253Z,1038.12
2023-02-07T08:13:04.237Z,1038.07
2023-02-07T08:14:04.202Z,1038.09
2023-02-07T08:15:04.190Z,1038.12
2023-02-07T08:16:04.220Z,1038.12
2023-02-07T08:17:04.203Z,1038.14
2023-02-07T08:18:04.182Z,1038.18
2023-02-07T08:19:04.134Z,1038.13
2023-02-07T08:20:04.169Z,1038.18
2023-02-07T08:21:04.117Z,1038.11
2023-02-07T08:22:04.103Z,1038.08
2023-02-07T08:23:04.099Z,1038.08
2023-02-07T08:24:04.082Z,1038.11
2023-02-07T08:25:04.060Z,1038.05
2023-02-07T08:26:04.072Z,1038.10
2023-02-07T08:27:04.066Z,1038.13
2023-02-07T08:28:04.730Z,1038.13
2023-02-07T08:29:04.014Z,1038.14
2023-02-07T08:30:04.007Z,1038.11
2023-02-07T08:31:04.011Z,1038.11
2023-02-07T08:32:04.033Z,1038.05
2023-02-07T08:33:03.993Z,1038.10
2023-02-07T08:34:03.956Z,1038.11
2023-02-07T08:35:03.943Z,1038.01
2023-02-07T08:36:03.941Z,1038.02
2023-02-07T08:37:03.929Z,1038.05
2023-02-07T08:38:03.921Z,1038.02
2023-02-07T08:39:05.746Z,1038.01
2023-02-07T08:40:03.890Z,1037.98
2023-02-07T08:41:03.850Z,1037.99
2023-02-07T08:42:03.851Z,1038.03
2023-02-07T08:43:03.852Z,1038.05
2023-02-07T08:44:03.815Z,1038.01
2023-02-07T08:45:03.883Z,1037.98
2023-02-07T08:46:03.902Z,1038.03
2023-02-07T08:47:03.774Z,1038.09
2023-02-07T08:48:03.791Z,1038.05
2023-02-07T08:49:03.764Z,1038.09
2023-02-07T08:50:03.732Z,1038.07
2023-02-07T08:51:03.734Z,1038.08
2023-02-07T08:52:03.723Z,1038.09
2023-02-07T08:53:03.737Z,1038.12
2023-02-07T08:54:03.716Z,1038.07
2023-02-07T08:55:03.704Z,1038.06
2023-02-07T08:56:03.678Z,1038.02
2023-02-07T08:57:03.647Z,1038.08
2023-02-07T08:58:03.636Z,1038.06
2023-02-07T08:59:03.649Z,1038.11
2023-02-07T09:00:03.622Z,1038.09
2023-02-07T09:01:03.671Z,1038.11
2023-02-07T09:02:03.656Z,1038.05
2023-02-07T09:03:03.584Z,1038.09
2023-02-07T09:04:03.605Z,1038.08
2023-02-07T09:05:03.541Z,1038.05
2023-02-07T09:06:03.562Z,1038.01
2023-02-07T09:07:03.524Z,1038.04
2023-02-07T09:08:03.522Z,1037.98
2023-02-07T09:09:03.528Z,1037.96
2023-02-07T09:10:03.494Z,1037.95
2023-02-07T09:11:09.192Z,1037.95
2023-02-07T09:12:04.463Z,1037.97
2023-02-07T09:13:03.443Z,1037.93
2023-02-07T09:14:03.460Z,1037.98
2023-02-07T09:15:03.417Z,1037.95
2023-02-07T09:16:03.404Z,1037.87
2023-02-07T09:17:03.413Z,1037.91
2023-02-07T09:18:03.364Z,1037.90
2023-02-07T09:19:03.372Z,1037.88
2023-02-07T09:20:03.366Z,1037.92
2023-02-07T09:21:03.345Z,1037.94
2023-02-07T09:22:03.316Z,1037.97
2023-02-07T09:23:03.322Z,1038.00
2023-02-07T09:24:03.305Z,1037.96
2023-02-07T09:25:03.305Z,1037.94
2023-02-07T09:26:03.281Z,1037.96
2023-02-07T09:27:03.278Z,1037.93
2023-02-07T09:28:03.271Z,1037.91
2023-02-07T09:29:03.255Z,1037.92
2023-02-07T09:30:03.251Z,1037.94
2023-02-07T09:31:05.388Z,1037.97
2023-02-07T09:32:03.216Z,1037.91
2023-02-07T09:33:03.206Z,1037.91
2023-02-07T09:34:03.197Z,1037.86
2023-02-07T09:35:03.160Z,1037.88
2023-02-07T09:36:03.152Z,1037.82
2023-02-07T09:37:03.146Z,1037.83
2023-02-07T09:38:03.119Z,1037.75
2023-02-07T09:39:03.122Z,1037.81
2023-02-07T09:40:03.087Z,1037.79
2023-02-07T09:41:03.109Z,1037.77
2023-02-07T09:42:05.333Z,1037.82
2023-02-07T09:43:03.203Z,1037.78
2023-02-07T09:44:03.208Z,1037.79
2023-02-07T09:45:03.339Z,1037.77
2023-02-07T09:46:03.055Z,1037.78
2023-02-07T09:47:03.008Z,1037.84
2023-02-07T09:48:03.010Z,1037.76
2023-02-07T09:49:02.996Z,1037.81
2023-02-07T09:50:02.980Z,1037.77
2023-02-07T09:51:02.948Z,1037.76
2023-02-07T09:52:02.954Z,1037.77
2023-02-07T09:53:02.938Z,1037.80
2023-02-07T09:54:02.929Z,1037.77
2023-02-07T09:55:02.923Z,1037.75
2023-02-07T09:56:02.936Z,1037.81
2023-02-07T09:57:02.878Z,1037.80
2023-02-07T09:58:02.884Z,1037.81
2023-02-07T09:59:02.918Z,1037.83
2023-02-07T10:00:02.836Z,1037.86
2023-02-07T10:01:02.863Z,1037.85
2023-02-07T10:02:02.802Z,1037.88
2023-02-07T10:03:02.784Z,1037.89
2023-02-07T10:04:02.794Z,1037.82
2023-02-07T10:05:02.790Z,1037.81
2023-02-07T10:06:12.865Z,1037.87
2023-02-07T10:07:03.734Z,1037.81
2023-02-07T10:08:02.723Z,1037.84
2023-02-07T10:09:02.715Z,1037.86
2023-02-07T10:10:02.701Z,1037.95
2023-02-07T10:11:02.704Z,1037.92
2023-02-07T10:12:02.663Z,1037.91
2023-02-07T10:13:02.705Z,1037.94
2023-02-07T10:14:02.650Z,1037.92
2023-02-07T10:15:02.642Z,1037.92
2023-02-07T10:16:02.684Z,1037.93
2023-02-07T10:17:02.605Z,1037.87
2023-02-07T10:18:02.586Z,1037.92
2023-02-07T10:19:02.583Z,1037.86
2023-02-07T10:20:02.567Z,1037.86
2023-02-07T10:21:02.551Z,1037.88
2023-02-07T10:22:02.540Z,1037.89
2023-02-07T10:23:02.563Z,1037.89
2023-02-07T10:24:02.530Z,1037.85
2023-02-07T10:25:02.532Z,1037.84
2023-02-07T10:26:02.568Z,1037.81
2023-02-07T10:27:02.485Z,1037.77
2023-02-07T10:28:02.469Z,1037.76
2023-02-07T10:29:02.450Z,1037.72
2023-02-07T10:30:02.454Z,1037.73
2023-02-07T10:31:02.511Z,1037.63
2023-02-07T10:32:02.414Z,1037.62
2023-02-07T10:33:02.402Z,1037.64
2023-02-07T10:34:02.371Z,1037.68
2023-02-07T10:35:02.385Z,1037.68
2023-02-07T10:36:02.374Z,1037.69
2023-02-07T10:37:02.363Z,1037.72
2023-02-07T10:38:02.315Z,1037.71
2023-02-07T10:39:08.849Z,1037.72
2023-02-07T10:40:03.342Z,1037.74
2023-02-07T10:41:02.286Z,1037.75
2023-02-07T10:42:02.263Z,1037.81
2023-02-07T10:43:02.293Z,1037.79
2023-02-07T10:44:02.234Z,1037.84
2023-02-07T10:45:02.243Z,1037.84
2023-02-07T10:46:06.369Z,1037.84
2023-02-07T10:47:02.217Z,1037.84
2023-02-07T10:48:02.191Z,1037.85
2023-02-07T10:49:02.182Z,1037.87
2023-02-07T10:50:02.175Z,1037.82
2023-02-07T10:51:02.160Z,1037.87
2023-02-07T10:52:02.144Z,1037.89
2023-02-07T10:53:02.155Z,1037.88
2023-02-07T10:54:02.106Z,1037.82
2023-02-07T10:55:02.116Z,1037.82
2023-02-07T10:56:02.118Z,1037.84
2023-02-07T10:57:02.968Z,1037.79
2023-02-07T10:58:11.466Z,1037.81
2023-02-07T10:59:03.045Z,1037.82
2023-02-07T11:00:02.041Z,1037.77
2023-02-07T11:01:02.033Z,1037.78
2023-02-07T11:02:02.026Z,1037.72
2023-02-07T11:03:02.046Z,1037.75
2023-02-07T11:04:02.017Z,1037.75
2023-02-07T11:05:01.996Z,1037.75
2023-02-07T11:06:01.973Z,1037.73
2023-02-07T11:07:01.947Z,1037.69
2023-02-07T11:08:01.931Z,1037.68
2023-02-07T11:09:01.916Z,1037.66
2023-02-07T11:10:01.913Z,1037.62
2023-02-07T11:11:01.894Z,1037.66
2023-02-07T11:12:01.879Z,1037.62
2023-02-07T11:13:01.869Z,1037.66
2023-02-07T11:14:01.850Z,1037.61
2023-02-07T11:15:01.846Z,1037.63
2023-02-07T11:16:01.867Z,1037.58
2023-02-07T11:17:01.826Z,1037.55
2023-02-07T11:18:01.795Z,1037.59
2023-02-07T11:19:01.792Z,1037.55
2023-02-07T11:20:01.803Z,1037.56
2023-02-07T11:21:01.762Z,1037.47
2023-02-07T11:22:01.746Z,1037.32
2023-02-07T11:23:01.735Z,1037.14
2023-02-07T11:24:01.719Z,1037.11
2023-02-07T11:25:01.717Z,1037.05
2023-02-07T11:26:01.715Z,1037.02
2023-02-07T11:27:01.683Z,1037.01
2023-02-07T11:28:01.690Z,1036.98
2023-02-07T11:29:01.650Z,1036.95
2023-02-07T11:30:01.637Z,1036.90
2023-02-07T11:31:01.741Z,1036.90
2023-02-07T11:32:01.607Z,1036.92
2023-02-07T11:33:01.595Z,1036.90
2023-02-07T11:34:01.583Z,1036.88
2023-02-07T11:35:01.615Z,1036.84
2023-02-07T11:36:01.580Z,1036.81
2023-02-07T11:37:01.568Z,1036.78
2023-02-07T11:38:03.548Z,1036.72
2023-02-07T11:39:01.521Z,1036.73
2023-02-07T11:40:01.499Z,1036.68
2023-02-07T11:41:01.536Z,1036.63
2023-02-07T11:42:01.485Z,1036.60
2023-02-07T11:43:01.472Z,1036.62
2023-02-07T11:44:01.469Z,1036.60
2023-02-07T11:45:01.446Z,1036.55
2023-02-07T11:46:01.455Z,1036.57
2023-02-07T11:47:01.419Z,1036.56
2023-02-07T11:48:01.392Z,1036.48
2023-02-07T11:49:01.394Z,1036.46
2023-02-07T11:50:01.369Z,1036.47
2023-02-07T11:51:01.376Z,1036.42
2023-02-07T11:52:01.358Z,1036.32
2023-02-07T11:53:01.333Z,1036.37
2023-02-07T11:54:01.314Z,1036.34
2023-02-07T11:55:01.310Z,1036.31
2023-02-07T11:56:01.325Z,1036.33
2023-02-07T11:57:01.285Z,1036.34
2023-02-07T11:58:01.268Z,1036.33
2023-02-07T11:59:01.258Z,1036.27
2023-02-07T12:00:01.254Z,1036.27
2023-02-07T12:01:01.237Z,1036.23
2023-02-07T12:02:01.239Z,1036.21
2023-02-07T12:03:01.214Z,1036.31
2023-02-07T12:04:01.216Z,1036.34
2023-02-07T12:05:01.199Z,1036.28
2023-02-07T12:06:01.222Z,1036.23